createdAt,value
2018-06-01T04:01:37.505Z,69.70
2018-06-01T04:04:07.295Z,69.80
2018-06-01T04:06:37.228Z,69.80
2018-06-01T04:09:06.236Z,70.00
2018-06-01T04:11:35.234Z,70.20
2018-06-01T04:14:04.267Z,69.50
2018-06-01T04:16:33.279Z,69.50
2018-06-01T04:19:02.339Z,69.10
2018-06-01T04:21:31.356Z,69.20
2018-06-01T04:24:00.368Z,69.40
2018-06-01T04:26:29.390Z,69.20
2018-06-01T04:28:58.411Z,69.50
2018-06-01T04:31:27.456Z,69.10
2018-06-01T04:33:57.256Z,70.10
2018-06-01T04:36:26.259Z,70.10
2018-06-01T04:38:56.062Z,70.30
2018-06-01T04:41:25.078Z,70.30
2018-06-01T04:43:54.879Z,70.20
2018-06-01T04:46:23.886Z,70.10
2018-06-01T04:48:52.923Z,69.10
2018-06-01T04:51:21.931Z,68.80
2018-06-01T04:53:50.970Z,68.70
2018-06-01T04:56:20.009Z,68.50
2018-06-01T04:58:49.016Z,68.70
2018-06-01T05:01:18.056Z,69.40
2018-06-01T05:03:47.069Z,68.60
2018-06-01T05:06:16.147Z,68.30
2018-06-01T05:08:45.159Z,68.20
2018-06-01T05:11:14.179Z,67.30
2018-06-01T05:13:43.215Z,67.00
2018-06-01T05:16:12.235Z,66.90
2018-06-01T05:18:41.246Z,66.00
2018-06-01T05:21:10.322Z,66.80
2018-06-01T05:23:39.849Z,66.20
2018-06-01T05:26:08.859Z,65.70
2018-06-01T05:28:37.902Z,66.30
2018-06-01T05:31:06.907Z,66.30
2018-06-01T05:33:35.917Z,66.70
2018-06-01T05:36:04.953Z,66.70
2018-06-01T05:38:34.735Z,65.70
2018-06-01T05:41:03.804Z,65.60
2018-06-01T05:43:32.819Z,66.00
2018-06-01T05:46:01.880Z,64.60
2018-06-01T05:48:30.892Z,64.90
2018-06-01T05:50:59.899Z,66.30
2018-06-01T05:53:28.938Z,65.40
2018-06-01T05:55:57.983Z,66.00
2018-06-01T05:58:26.987Z,65.70
2018-06-01T06:00:56.034Z,64.60
2018-06-01T06:03:25.045Z,63.80
2018-06-01T06:05:54.077Z,63.60
2018-06-01T06:08:23.085Z,62.80
2018-06-01T06:10:52.150Z,62.30
2018-06-01T06:13:21.215Z,61.70
2018-06-01T06:15:50.951Z,62.60
2018-06-01T06:18:20.025Z,62.50
2018-06-01T06:20:49.032Z,62.70
2018-06-01T06:23:18.039Z,64.00
2018-06-01T06:25:47.141Z,63.20
2018-06-01T06:28:16.147Z,62.10
2018-06-01T06:30:45.924Z,60.80
2018-06-01T06:33:14.972Z,61.30
2018-06-01T06:35:43.979Z,61.80
2018-06-01T06:38:13.012Z,61.10
2018-06-01T06:40:42.023Z,60.30
2018-06-01T06:43:11.067Z,60.20
2018-06-01T06:45:40.074Z,59.70
2018-06-01T06:48:09.131Z,60.40
2018-06-01T06:50:38.906Z,60.40
2018-06-01T06:53:07.906Z,60.20
2018-06-01T06:55:36.952Z,61.00
2018-06-01T06:58:06.006Z,59.10
2018-06-01T07:00:35.019Z,58.60
2018-06-01T07:03:04.059Z,59.30
2018-06-01T07:05:33.062Z,59.60
2018-06-01T07:08:02.112Z,59.20
2018-06-01T07:10:31.206Z,59.90
2018-06-01T07:13:00.972Z,58.90
2018-06-01T07:15:30.007Z,58.80
2018-06-01T07:17:59.027Z,57.90
2018-06-01T07:20:28.068Z,55.40
2018-06-01T07:22:57.077Z,56.30
2018-06-01T07:25:26.887Z,56.60
2018-06-01T07:27:55.904Z,56.50
2018-06-01T07:30:24.942Z,57.40
2018-06-01T07:32:53.947Z,57.10
2018-06-01T07:35:22.996Z,55.80
2018-06-01T07:37:52.000Z,55.20
2018-06-01T07:40:21.035Z,56.00
2018-06-01T07:42:50.058Z,54.30
2018-06-01T07:45:19.113Z,55.50
2018-06-01T07:47:48.120Z,54.50
2018-06-01T07:50:17.903Z,53.40
2018-06-01T07:52:46.950Z,53.40
2018-06-01T07:55:15.985Z,53.30
2018-06-01T07:57:44.990Z,54.00
2018-06-01T15:00:04.787Z,27.80
2018-06-01T15:02:33.810Z,26.20
2018-06-01T15:05:02.876Z,27.20
2018-06-01T15:07:31.997Z,27.10
2018-06-01T15:10:01.472Z,28.10
2018-06-01T15:12:30.519Z,27.00
2018-06-01T15:15:00.296Z,27.80
2018-06-01T15:17:29.354Z,27.80
2018-06-01T15:19:58.375Z,28.60
2018-06-01T15:22:27.428Z,30.10
2018-06-01T15:24:57.195Z,28.60
2018-06-01T15:27:26.246Z,28.60
2018-06-01T15:29:55.255Z,28.10
2018-06-01T15:32:24.271Z,29.80
2018-06-01T15:34:53.311Z,31.00
2018-06-01T15:37:22.332Z,30.30
2018-06-01T15:39:51.367Z,30.50
2018-06-01T15:42:20.378Z,32.20
2018-06-01T15:44:50.199Z,29.70
2018-06-01T15:47:19.980Z,29.20
2018-06-01T15:49:48.987Z,29.20
2018-06-01T15:52:18.027Z,30.10
2018-06-01T15:54:47.069Z,31.50
2018-06-01T15:57:16.072Z,33.80
2018-06-01T15:59:45.880Z,33.70
2018-06-01T16:02:15.592Z,33.80
2018-06-01T16:05:00.448Z,33.00
2018-06-01T16:07:30.859Z,31.40
2018-06-01T16:09:59.931Z,31.50
2018-06-01T16:12:28.985Z,29.60
2018-06-01T16:14:57.959Z,29.80
2018-06-01T16:17:27.051Z,30.30
2018-06-01T16:19:56.068Z,29.90
2018-06-01T16:22:25.844Z,30.10
2018-06-01T16:24:54.883Z,29.60
2018-06-01T16:27:24.651Z,29.30
2018-06-01T16:29:53.667Z,29.30
2018-06-01T16:32:22.716Z,30.30
2018-06-01T16:34:51.724Z,30.90
2018-06-01T16:37:20.791Z,31.40
2018-06-01T16:39:49.815Z,31.90
2018-06-01T16:42:18.866Z,33.50
2018-06-01T16:44:47.884Z,32.60
2018-06-01T16:47:16.899Z,32.70
2018-06-01T16:49:45.933Z,32.90
2018-06-01T16:52:15.720Z,34.10
2018-06-01T16:54:44.722Z,34.10
2018-06-01T16:57:13.771Z,35.90
2018-06-01T16:59:42.796Z,34.50
2018-06-01T17:02:11.832Z,34.90
2018-06-01T17:04:40.842Z,35.10
2018-06-01T17:07:09.914Z,34.60
2018-06-01T17:09:38.980Z,34.90
2018-06-01T17:12:07.949Z,35.30
2018-06-01T17:14:37.010Z,35.30
2018-06-01T17:17:06.019Z,35.20
2018-06-01T17:19:35.035Z,37.10
2018-06-01T17:22:04.098Z,38.40
2018-06-01T17:24:33.104Z,40.40
2018-06-01T17:27:02.128Z,40.60
2018-06-01T17:29:31.159Z,40.80
2018-06-01T17:32:00.212Z,41.30
2018-06-01T17:34:29.233Z,42.30
2018-06-01T17:36:58.271Z,42.70
2018-06-01T17:39:27.288Z,43.50
2018-06-01T17:41:56.366Z,45.10
2018-06-01T17:44:25.369Z,44.30
2018-06-01T17:46:54.377Z,44.10
2018-06-01T17:49:23.477Z,42.80
2018-06-01T17:51:53.279Z,43.90
2018-06-01T17:54:22.294Z,43.90
2018-06-01T17:56:51.363Z,44.80
2018-06-01T17:59:20.379Z,47.20
2018-06-01T18:01:49.419Z,47.10
2018-06-01T18:04:18.450Z,49.20
2018-06-01T18:06:58.833Z,49.40
2018-06-01T18:09:28.699Z,50.10
2018-06-01T18:11:57.788Z,50.60
2018-06-01T18:14:26.818Z,51.40
2018-06-01T18:16:55.835Z,52.30
2018-06-01T18:19:25.649Z,52.50
2018-06-01T18:21:54.650Z,52.50
2018-06-01T18:24:24.427Z,52.60
2018-06-01T18:26:53.488Z,52.60
2018-06-01T18:29:22.507Z,52.40
2018-06-01T18:31:51.535Z,53.10
2018-06-01T18:34:20.576Z,53.10
2018-06-01T18:36:49.614Z,51.90
2018-06-01T18:39:19.392Z,51.30
2018-06-01T18:41:48.499Z,51.30
2018-06-01T18:44:17.611Z,51.60
2018-06-01T18:46:46.639Z,51.60
2018-06-01T18:49:15.674Z,51.20
2018-06-01T18:51:44.682Z,51.10
2018-06-01T18:54:13.697Z,50.90
2018-06-01T18:56:43.500Z,50.00
2018-06-01T18:59:12.519Z,50.00
2018-06-01T19:01:41.567Z,49.50
2018-06-01T19:04:10.574Z,49.90
2018-06-01T19:06:39.878Z,50.80
2018-06-01T19:09:08.905Z,50.80
2018-06-01T19:11:38.671Z,50.10
2018-06-01T19:14:07.735Z,50.10
2018-06-01T19:16:36.761Z,49.70
2018-06-01T19:19:05.772Z,49.50
2018-06-01T19:21:35.609Z,50.20
2018-06-01T19:24:04.622Z,50.20
2018-06-01T19:26:33.629Z,50.50
2018-06-01T19:29:02.686Z,50.40
2018-06-01T19:31:32.583Z,50.80
2018-06-01T19:34:02.355Z,51.10
2018-06-01T19:36:31.364Z,51.10
2018-06-01T19:39:00.412Z,52.00
2018-06-01T19:41:29.427Z,52.30
2018-06-01T19:43:58.487Z,52.80
2018-06-01T19:46:27.560Z,53.50
2018-06-01T19:48:56.519Z,55.60
2018-06-01T19:51:25.552Z,55.90
2018-06-01T19:53:55.359Z,57.30
2018-06-01T19:56:24.374Z,57.30
2018-06-01T19:58:53.403Z,56.50
2018-06-01T20:01:22.422Z,56.40
2018-06-01T20:03:51.467Z,57.00
2018-06-01T20:06:20.470Z,57.40
2018-06-01T20:08:49.526Z,57.90
2018-06-01T20:11:18.533Z,56.40
2018-06-01T20:13:47.564Z,56.40
2018-06-01T20:16:16.625Z,56.90
2018-06-01T20:18:45.642Z,57.90
2018-06-01T20:21:14.709Z,58.20
2018-06-01T20:23:44.283Z,58.70
2018-06-01T20:26:13.342Z,59.00
2018-06-01T20:28:42.355Z,59.40
2018-06-01T20:31:11.403Z,59.80
2018-06-01T20:33:40.431Z,61.10
2018-06-01T20:36:09.438Z,62.20
2018-06-01T20:38:38.503Z,62.70
2018-06-01T20:41:07.522Z,64.10
2018-06-01T20:43:36.558Z,65.00
2018-06-01T20:46:06.450Z,65.90
2018-06-01T20:48:35.464Z,65.90
2018-06-01T20:51:06.286Z,67.60
2018-06-01T20:53:35.299Z,67.70
2018-06-01T20:56:04.314Z,67.90
2018-06-01T20:58:33.364Z,68.60
2018-06-01T21:01:02.381Z,68.60
2018-06-01T21:03:31.424Z,68.30
2018-06-01T21:06:00.425Z,70.00
2018-06-01T21:08:29.513Z,69.50
2018-06-01T21:10:58.515Z,70.40
2018-06-01T21:13:27.528Z,70.50
2018-06-01T21:15:57.411Z,71.80
2018-06-01T21:18:26.420Z,71.60
2018-06-01T21:20:55.437Z,72.40
2018-06-01T21:23:24.495Z,72.50
2018-06-01T21:25:53.508Z,72.50
2018-06-01T21:28:22.511Z,72.90
2018-06-01T21:30:51.553Z,73.30
2018-06-01T21:33:20.588Z,74.00
2018-06-01T21:35:49.598Z,74.00
2018-06-01T21:38:19.429Z,74.60
2018-06-01T21:40:48.427Z,74.60
2018-06-01T21:43:17.503Z,74.20
2018-06-01T21:45:46.507Z,74.40
2018-06-01T21:48:15.561Z,74.60
2018-06-01T21:50:44.619Z,75.00
2018-06-01T21:53:13.635Z,74.00
2018-06-01T21:55:42.650Z,73.80
2018-06-01T21:58:11.711Z,74.50
